Time;durP1;ratioP1;P1;durP2;ratioP2;P2;SDS_P1;SDS_P2;PMS_P1;PMS_P2;Temp;Humidity;BMP_temperature;BMP_pressure;BME280_temperature;BME280_humidity;BME280_pressure;Samples;Min_cycle;Max_cycle;Signal;HPM_P1;HPM_P2
2023/01/11 00:01:08;;;;;;;5.05;3.17;;;9.00;92.60;;;;;;5051622;28;20050;-79
2023/01/11 00:03:35;;;;;;;5.90;3.38;;;9.10;92.60;;;;;;5045597;28;20936;-78
2023/01/11 00:06:03;;;;;;;5.18;2.50;;;9.20;92.50;;;;;;5063891;28;20132;-77
2023/01/11 00:08:31;;;;;;;5.63;3.25;;;9.20;92.50;;;;;;5051718;28;20049;-78
2023/01/11 00:11:01;;;;;;;5.30;2.60;;;9.20;92.60;;;;;;5048615;28;20803;-79
2023/01/11 00:13:27;;;;;;;5.93;3.38;;;9.20;92.60;;;;;;5052712;28;20132;-78
2023/01/11 00:15:55;;;;;;;6.32;3.25;;;9.20;92.50;;;;;;5064550;28;20051;-78
2023/01/11 00:18:23;;;;;;;5.90;3.30;;;9.20;92.50;;;;;;5059331;28;20064;-79
2023/01/11 00:20:50;;;;;;;5.10;3.08;;;9.20;92.40;;;;;;5060579;28;20049;-77
2023/01/11 00:23:17;;;;;;;5.70;3.10;;;9.20;92.50;;;;;;5068833;28;20100;-79
2023/01/11 00:25:43;;;;;;;4.32;2.25;;;9.20;92.50;;;;;;5056654;28;20136;-78
2023/01/11 00:28:10;;;;;;;5.32;3.10;;;9.20;92.60;;;;;;5049450;28;20512;-78
2023/01/11 00:30:37;;;;;;;4.90;2.75;;;9.30;92.60;;;;;;5035099;28;20091;-78
2023/01/11 00:33:04;;;;;;;4.85;2.80;;;9.30;92.60;;;;;;5059160;28;20045;-77
2023/01/11 00:35:33;;;;;;;6.00;3.30;;;9.30;92.60;;;;;;5038093;28;20091;-78
2023/01/11 00:37:59;;;;;;;6.93;3.38;;;9.40;92.70;;;;;;5056473;28;20053;-77
2023/01/11 00:40:26;;;;;;;5.65;3.03;;;9.40;92.60;;;;;;5049327;28;20132;-78
2023/01/11 00:48:23;;;;;;;6.13;2.77;;;9.40;92.80;;;;;;5045093;28;20120;-78
2023/01/11 00:50:53;;;;;;;5.95;3.00;;;9.40;92.80;;;;;;5058302;28;20136;-78
2023/01/11 00:53:20;;;;;;;4.75;2.70;;;9.40;92.80;;;;;;5058230;28;20073;-78
2023/01/11 00:55:47;;;;;;;5.93;2.88;;;9.40;92.80;;;;;;5051683;28;20055;-78
2023/01/11 00:58:14;;;;;;;5.10;2.85;;;9.50;92.90;;;;;;5048184;28;20050;-78
2023/01/11 01:00:41;;;;;;;6.03;3.00;;;9.50;92.80;;;;;;5038108;28;20052;-77
2023/01/11 01:03:08;;;;;;;5.18;3.50;;;9.50;92.90;;;;;;5030007;28;20486;-78
2023/01/11 01:05:38;;;;;;;4.90;2.97;;;9.50;92.90;;;;;;5031095;28;20050;-77
2023/01/11 01:08:06;;;;;;;6.03;3.72;;;9.50;92.90;;;;;;5046184;28;20045;-77
2023/01/11 01:10:34;;;;;;;5.72;3.20;;;9.60;93.00;;;;;;5055509;28;20062;-78
2023/01/11 01:15:45;;;;;;;5.43;3.30;;;9.60;93.20;;;;;;5048625;28;20567;-78
2023/01/11 01:18:19;;;;;;;5.38;3.25;;;9.60;93.00;;;;;;5052392;28;20042;-78
2023/01/11 01:20:50;;;;;;;5.50;2.67;;;9.60;93.10;;;;;;5046007;28;20057;-78
2023/01/11 01:23:18;;;;;;;6.22;3.45;;;9.70;93.20;;;;;;5056915;28;20053;-77
2023/01/11 01:25:45;;;;;;;5.50;3.27;;;9.70;93.20;;;;;;5056201;28;20136;-77
2023/01/11 01:28:12;;;;;;;5.90;3.20;;;9.70;93.30;;;;;;5051233;28;20049;-77
2023/01/11 01:30:40;;;;;;;6.32;3.58;;;9.70;93.30;;;;;;5047736;28;20132;-77
2023/01/11 01:33:07;;;;;;;6.28;3.60;;;9.80;93.40;;;;;;5058844;28;20056;-77
2023/01/11 01:35:34;;;;;;;5.30;3.28;;;9.80;93.40;;;;;;5050761;28;20073;-78
2023/01/11 01:38:01;;;;;;;4.47;2.30;;;9.80;93.30;;;;;;5049582;28;20116;-77
2023/01/11 01:40:29;;;;;;;5.85;3.35;;;9.80;93.30;;;;;;5030324;28;20072;-78
2023/01/11 01:42:56;;;;;;;6.28;3.58;;;9.80;93.20;;;;;;5046788;28;20046;-78
2023/01/11 01:45:24;;;;;;;5.60;3.70;;;10.00;93.40;;;;;;5048427;28;20089;-79
2023/01/11 01:47:54;;;;;;;4.93;3.35;;;10.00;93.20;;;;;;5049523;28;20512;-78
2023/01/11 01:50:25;;;;;;;5.57;3.30;;;10.00;93.30;;;;;;5056740;28;20503;-78
2023/01/11 01:52:56;;;;;;;6.13;3.28;;;10.00;93.30;;;;;;5054227;28;20049;-77
2023/01/11 01:55:28;;;;;;;5.22;3.47;;;10.00;93.40;;;;;;5054067;28;20068;-77
2023/01/11 01:58:00;;;;;;;4.72;2.95;;;10.00;93.40;;;;;;5055160;28;20721;-78
2023/01/11 02:00:27;;;;;;;5.35;3.20;;;10.00;93.30;;;;;;5052687;28;20141;-78
2023/01/11 02:02:55;;;;;;;5.97;3.27;;;10.00;93.40;;;;;;5044686;28;20057;-78
2023/01/11 02:05:22;;;;;;;5.97;3.50;;;10.10;93.40;;;;;;5055390;28;20051;-77
2023/01/11 02:07:50;;;;;;;5.28;2.80;;;10.10;93.40;;;;;;5048085;28;20077;-78
2023/01/11 02:10:18;;;;;;;5.63;3.30;;;10.10;93.50;;;;;;5045404;28;20057;-79
2023/01/11 02:12:50;;;;;;;6.20;3.03;;;10.20;93.40;;;;;;5051412;28;20053;-79
2023/01/11 02:15:21;;;;;;;5.30;3.10;;;10.20;93.30;;;;;;5048475;28;20135;-78
2023/01/11 02:17:48;;;;;;;4.57;2.25;;;10.20;93.40;;;;;;5038432;28;20730;-78
2023/01/11 02:20:31;;;;;;;4.43;2.70;;;10.20;93.40;;;;;;5047820;28;20053;-77
2023/01/11 02:23:20;;;;;;;5.18;2.50;;;10.20;93.50;;;;;;5052652;28;20092;-77
2023/01/11 02:26:10;;;;;;;6.28;2.70;;;10.20;93.50;;;;;;5053393;28;20044;-78
2023/01/11 02:28:44;;;;;;;5.67;2.70;;;10.30;93.50;;;;;;5052551;28;20498;-79
2023/01/11 02:31:19;;;;;;;4.65;2.60;;;10.30;93.50;;;;;;5046461;28;20139;-78
2023/01/11 02:33:58;;;;;;;5.43;2.50;;;10.40;93.40;;;;;;5045904;28;20052;-78
2023/01/11 02:36:33;;;;;;;4.63;1.80;;;10.40;93.30;;;;;;5055005;28;20057;-77
2023/01/11 02:39:06;;;;;;;4.05;2.20;;;10.40;93.20;;;;;;5058342;28;20072;-77
2023/01/11 02:47:18;;;;;;;4.55;2.00;;;10.50;93.40;;;;;;5047491;28;20925;-77
2023/01/11 02:49:52;;;;;;;5.03;2.70;;;10.50;93.20;;;;;;5025875;28;20535;-77
2023/01/11 02:52:26;;;;;;;4.05;1.80;;;10.50;93.30;;;;;;5026625;28;21022;-76
2023/01/11 02:54:58;;;;;;;4.93;2.10;;;10.50;93.20;;;;;;5046843;28;20521;-77
2023/01/11 02:57:27;;;;;;;5.25;1.92;;;10.50;93.30;;;;;;5054400;28;20168;-77
2023/01/11 02:59:57;;;;;;;4.05;2.05;;;10.50;93.30;;;;;;5055961;28;20042;-77
2023/01/11 03:02:24;;;;;;;5.20;1.67;;;10.60;93.30;;;;;;5056790;28;20147;-79
2023/01/11 03:04:51;;;;;;;3.47;1.58;;;10.50;93.30;;;;;;5033203;28;20476;-79
2023/01/11 03:07:32;;;;;;;3.50;1.57;;;10.60;93.40;;;;;;5050505;28;20205;-77
2023/01/11 03:10:08;;;;;;;4.45;1.85;;;10.60;93.30;;;;;;5057521;28;20051;-78
2023/01/11 03:12:51;;;;;;;4.18;1.90;;;10.60;93.20;;;;;;5048970;28;20081;-78
2023/01/11 03:15:44;;;;;;;4.63;1.80;;;10.60;93.40;;;;;;5049874;28;20514;-77
2023/01/11 03:18:25;;;;;;;3.88;1.63;;;10.60;93.30;;;;;;5046726;28;20074;-77
2023/01/11 03:21:03;;;;;;;3.17;1.27;;;10.60;93.30;;;;;;5060317;28;20049;-77
2023/01/11 03:23:38;;;;;;;3.03;1.00;;;10.60;93.40;;;;;;5059569;28;20135;-77
2023/01/11 03:26:17;;;;;;;3.70;1.50;;;10.60;93.40;;;;;;5063473;28;20060;-77
2023/01/11 03:28:52;;;;;;;3.00;1.10;;;10.70;93.40;;;;;;5043384;28;20049;-79
2023/01/11 03:31:30;;;;;;;3.42;1.10;;;10.70;93.40;;;;;;5048893;28;20601;-78
2023/01/11 03:34:02;;;;;;;2.97;1.00;;;10.70;93.50;;;;;;5048864;28;20060;-78
2023/01/11 03:36:34;;;;;;;3.45;1.10;;;10.70;93.40;;;;;;5045440;28;20056;-78
2023/01/11 03:39:08;;;;;;;4.05;1.20;;;10.60;93.50;;;;;;5049603;28;20149;-77
2023/01/11 03:41:39;;;;;;;3.03;1.25;;;10.70;93.60;;;;;;5056595;28;20045;-78
2023/01/11 03:44:10;;;;;;;2.75;0.73;;;10.70;93.60;;;;;;5049843;28;20251;-77
2023/01/11 03:46:43;;;;;;;2.50;0.50;;;10.70;93.60;;;;;;5063510;28;20057;-78
2023/01/11 03:49:17;;;;;;;3.30;0.60;;;10.70;93.60;;;;;;5053296;28;20060;-78
2023/01/11 03:51:46;;;;;;;3.67;0.63;;;10.70;93.60;;;;;;5046919;28;20064;-79
2023/01/11 03:54:16;;;;;;;2.25;0.40;;;10.70;93.70;;;;;;5029972;28;20049;-78
2023/01/11 03:56:51;;;;;;;1.88;0.40;;;10.70;93.70;;;;;;5066912;28;20135;-79
2023/01/11 03:59:19;;;;;;;1.97;0.40;;;10.70;93.60;;;;;;5048085;28;20673;-78
2023/01/11 04:01:47;;;;;;;2.15;0.50;;;10.70;93.70;;;;;;5052207;28;20045;-78
2023/01/11 04:04:14;;;;;;;1.95;0.40;;;10.70;93.80;;;;;;5057292;28;20068;-78
2023/01/11 04:06:41;;;;;;;2.47;0.68;;;10.80;93.80;;;;;;5063055;28;20080;-79
2023/01/11 04:09:08;;;;;;;1.85;0.40;;;10.80;93.90;;;;;;5057880;28;20053;-79
2023/01/11 04:11:35;;;;;;;2.13;0.50;;;10.80;93.90;;;;;;5041169;28;21074;-78
2023/01/11 04:14:14;;;;;;;2.20;0.60;;;10.80;93.90;;;;;;5050133;28;20511;-78
2023/01/11 04:16:41;;;;;;;2.40;0.60;;;10.80;93.90;;;;;;5042799;28;20510;-78
2023/01/11 04:19:09;;;;;;;2.95;0.70;;;10.90;93.90;;;;;;5048462;28;20132;-78
2023/01/11 04:21:36;;;;;;;2.13;0.63;;;10.90;93.90;;;;;;5068542;28;20054;-78
2023/01/11 04:24:03;;;;;;;2.90;0.80;;;10.90;94.00;;;;;;5055169;28;20139;-78
2023/01/11 04:26:30;;;;;;;2.90;1.00;;;10.90;94.00;;;;;;5046243;28;20045;-79
2023/01/11 04:28:57;;;;;;;3.55;1.17;;;10.90;94.00;;;;;;5030356;28;20054;-78
2023/01/11 04:31:24;;;;;;;4.40;1.20;;;10.90;94.10;;;;;;5056062;28;20146;-78
2023/01/11 04:33:51;;;;;;;4.75;1.52;;;11.00;94.10;;;;;;5057210;28;20133;-79
2023/01/11 04:36:19;;;;;;;4.10;1.13;;;11.00;94.10;;;;;;5056352;28;20115;-78
2023/01/11 04:38:46;;;;;;;5.63;1.50;;;11.00;94.00;;;;;;5050188;28;20100;-78
2023/01/11 04:43:57;;;;;;;7.68;1.73;;;11.00;94.00;;;;;;5050220;28;20107;-79
2023/01/11 04:46:24;;;;;;;7.57;1.70;;;11.10;94.00;;;;;;5043328;28;20049;-79
2023/01/11 04:48:51;;;;;;;6.60;1.67;;;11.10;93.90;;;;;;5056051;28;20053;-78
2023/01/11 04:51:20;;;;;;;7.65;1.98;;;11.10;93.80;;;;;;5052986;28;20050;-78
2023/01/11 04:53:47;;;;;;;7.57;1.75;;;11.10;93.70;;;;;;5058894;28;20049;-78
2023/01/11 04:56:14;;;;;;;7.93;2.03;;;11.10;93.60;;;;;;5050648;28;20041;-77
2023/01/11 04:58:42;;;;;;;7.03;1.80;;;11.10;93.50;;;;;;5049135;28;20053;-79
2023/01/11 05:01:10;;;;;;;8.83;1.77;;;11.10;93.40;;;;;;5046963;28;20137;-78
2023/01/11 05:03:37;;;;;;;9.25;1.70;;;11.10;93.20;;;;;;5056253;28;20132;-79
2023/01/11 05:06:05;;;;;;;11.00;2.20;;;11.10;93.00;;;;;;5047568;28;20128;-79
2023/01/11 05:08:33;;;;;;;7.35;1.25;;;11.20;92.80;;;;;;5043158;28;20172;-79
2023/01/11 05:11:02;;;;;;;10.52;1.40;;;11.20;92.70;;;;;;5034827;28;20511;-78
2023/01/11 05:13:42;;;;;;;11.00;1.90;;;11.30;92.20;;;;;;5047572;28;20049;-78
2023/01/11 05:16:11;;;;;;;8.75;1.77;;;11.30;92.20;;;;;;5049084;28;20057;-78
2023/01/11 05:18:40;;;;;;;8.98;1.70;;;11.30;92.00;;;;;;5047513;28;20160;-78
2023/01/11 05:21:07;;;;;;;9.05;1.85;;;11.30;91.70;;;;;;5046693;28;20519;-77
2023/01/11 05:23:36;;;;;;;7.40;0.88;;;11.30;91.60;;;;;;5055464;28;20045;-78
2023/01/11 05:26:05;;;;;;;8.03;1.27;;;11.30;91.60;;;;;;5054760;28;20062;-77
2023/01/11 05:28:32;;;;;;;10.75;1.60;;;11.30;91.60;;;;;;5043392;28;20045;-78
2023/01/11 05:30:59;;;;;;;10.90;1.92;;;11.30;91.50;;;;;;5053291;28;20057;-77
2023/01/11 05:33:26;;;;;;;15.20;2.15;;;11.20;91.60;;;;;;5048926;28;20085;-77
2023/01/11 05:35:58;;;;;;;11.40;1.80;;;11.20;91.50;;;;;;5046976;28;20045;-78
2023/01/11 05:38:24;;;;;;;15.03;1.80;;;11.20;91.40;;;;;;5049012;28;20053;-77
2023/01/11 05:40:57;;;;;;;13.02;2.00;;;11.10;91.40;;;;;;5047848;28;20523;-79
2023/01/11 05:43:24;;;;;;;11.15;1.88;;;11.10;91.50;;;;;;5051540;28;20235;-78
2023/01/11 05:45:50;;;;;;;10.52;2.17;;;11.10;91.50;;;;;;5057143;28;20073;-78
2023/01/11 05:48:17;;;;;;;11.30;1.70;;;11.10;91.40;;;;;;5048168;28;20055;-78
2023/01/11 05:50:44;;;;;;;8.73;1.57;;;11.10;91.40;;;;;;5058622;28;20095;-79
2023/01/11 05:53:12;;;;;;;11.52;1.50;;;11.10;91.40;;;;;;5033137;28;20857;-77
2023/01/11 05:55:38;;;;;;;14.15;2.10;;;11.10;91.20;;;;;;5047134;28;20045;-77
2023/01/11 05:58:07;;;;;;;14.60;2.58;;;11.10;91.00;;;;;;5046801;28;20124;-79
2023/01/11 06:00:34;;;;;;;13.57;2.00;;;11.10;91.10;;;;;;5049896;28;20055;-78
2023/01/11 06:03:01;;;;;;;11.63;1.97;;;11.10;91.10;;;;;;5048918;28;20129;-78
2023/01/11 06:05:28;;;;;;;13.52;1.90;;;11.10;91.00;;;;;;5040012;28;20099;-79
2023/01/11 06:07:56;;;;;;;16.85;2.50;;;11.10;90.90;;;;;;5051626;28;20057;-78
2023/01/11 06:10:22;;;;;;;15.85;2.58;;;11.10;90.90;;;;;;5046958;28;20092;-79
2023/01/11 06:13:25;;;;;;;16.15;2.10;;;11.10;90.90;;;;;;5042232;28;20045;-78
2023/01/11 06:15:43;;;;;;;14.53;1.87;;;11.10;90.80;;;;;;5051723;28;20057;-79
2023/01/11 06:18:10;;;;;;;8.23;1.20;;;11.10;90.80;;;;;;5044814;28;20129;-77
2023/01/11 06:20:37;;;;;;;17.55;2.40;;;11.10;90.80;;;;;;5049643;28;20049;-78
2023/01/11 06:23:04;;;;;;;11.27;1.70;;;11.00;90.70;;;;;;5045615;28;20053;-79
2023/01/11 06:25:31;;;;;;;14.10;2.63;;;11.00;90.80;;;;;;5050833;28;20144;-80
2023/01/11 06:27:59;;;;;;;15.77;2.37;;;11.00;90.80;;;;;;5050265;28;20079;-81
2023/01/11 06:30:26;;;;;;;15.43;1.88;;;11.00;90.80;;;;;;5056465;28;20046;-81
2023/01/11 06:32:54;;;;;;;14.45;2.25;;;11.00;90.90;;;;;;5054743;28;20056;-81
2023/01/11 06:35:21;;;;;;;13.68;2.00;;;11.00;91.00;;;;;;5050907;28;20049;-81
2023/01/11 06:37:48;;;;;;;15.73;2.45;;;10.90;90.90;;;;;;5050087;28;20056;-81
2023/01/11 06:40:15;;;;;;;14.67;2.47;;;10.90;91.00;;;;;;5067452;28;20132;-81
2023/01/11 06:42:42;;;;;;;15.15;2.40;;;10.90;91.00;;;;;;5047060;28;20045;-81
2023/01/11 06:45:11;;;;;;;14.25;2.50;;;10.90;91.00;;;;;;5049064;28;20152;-81
2023/01/11 06:47:38;;;;;;;18.27;2.72;;;10.90;91.00;;;;;;5047120;28;20176;-83
2023/01/11 06:50:07;;;;;;;12.02;1.90;;;10.90;91.00;;;;;;5050069;28;20168;-81
2023/01/11 06:52:34;;;;;;;14.20;2.03;;;10.90;90.90;;;;;;5051374;28;20060;-81
2023/01/11 06:55:01;;;;;;;18.13;2.50;;;10.90;90.90;;;;;;5049196;28;20174;-80
2023/01/11 06:57:28;;;;;;;13.68;2.30;;;10.80;91.00;;;;;;5049497;28;20510;-80
2023/01/11 06:59:55;;;;;;;12.45;2.28;;;10.90;91.00;;;;;;5049405;28;20129;-81
2023/01/11 07:02:22;;;;;;;13.48;2.17;;;10.80;90.90;;;;;;5057590;28;20054;-83
2023/01/11 07:04:51;;;;;;;17.70;2.10;;;10.80;90.90;;;;;;5053159;28;20061;-81
2023/01/11 07:07:19;;;;;;;14.30;2.15;;;10.80;90.80;;;;;;5047532;28;20108;-80
2023/01/11 07:10:13;;;;;;;14.18;2.40;;;10.80;90.80;;;;;;5050118;28;20049;-81
2023/01/11 07:12:40;;;;;;;14.95;2.40;;;10.80;90.70;;;;;;5047802;28;20053;-80
2023/01/11 07:15:09;;;;;;;12.63;2.53;;;10.80;90.70;;;;;;5049233;28;20041;-81
2023/01/11 07:17:37;;;;;;;14.03;2.20;;;10.80;90.70;;;;;;5059777;28;20052;-82
2023/01/11 07:20:05;;;;;;;19.88;2.50;;;10.80;90.70;;;;;;5046357;28;20511;-82
2023/01/11 07:22:35;;;;;;;14.40;1.95;;;10.80;90.70;;;;;;5051330;28;20045;-81
2023/01/11 07:25:03;;;;;;;16.98;2.50;;;10.80;90.70;;;;;;5022730;28;20467;-82
2023/01/11 07:27:30;;;;;;;13.65;2.40;;;10.70;90.70;;;;;;5012212;28;20042;-79
2023/01/11 07:29:58;;;;;;;20.80;3.07;;;10.70;90.70;;;;;;5056065;28;20158;-82
2023/01/11 07:32:26;;;;;;;14.13;2.30;;;10.70;90.80;;;;;;5052323;28;20053;-81
2023/01/11 07:34:53;;;;;;;17.48;3.60;;;10.70;90.70;;;;;;5068999;28;20049;-81
2023/01/11 07:37:20;;;;;;;13.65;2.35;;;10.70;90.70;;;;;;5063299;28;20050;-81
2023/01/11 07:39:48;;;;;;;17.90;2.80;;;10.70;90.60;;;;;;5050289;28;20065;-81
2023/01/11 07:45:00;;;;;;;14.07;2.53;;;10.60;90.40;;;;;;5049347;28;20053;-80
2023/01/11 07:47:27;;;;;;;16.25;2.60;;;10.60;90.20;;;;;;5050008;28;20081;-81
2023/01/11 07:49:54;;;;;;;16.15;2.20;;;10.60;90.20;;;;;;5048526;28;20064;-81
2023/01/11 07:52:21;;;;;;;15.48;1.70;;;10.60;90.10;;;;;;5032256;28;20527;-81
2023/01/11 07:54:49;;;;;;;10.83;1.47;;;10.60;89.90;;;;;;5047553;28;20132;-82
2023/01/11 07:57:16;;;;;;;9.98;1.80;;;10.60;89.70;;;;;;5049185;28;20140;-81
2023/01/11 07:59:43;;;;;;;13.80;2.42;;;10.50;89.70;;;;;;5048546;28;20132;-80
2023/01/11 08:02:10;;;;;;;16.13;2.40;;;10.50;89.60;;;;;;5048734;28;20171;-80
2023/01/11 08:04:37;;;;;;;16.25;2.05;;;10.50;89.60;;;;;;5048785;28;20065;-80
2023/01/11 08:07:04;;;;;;;9.90;1.43;;;10.40;89.60;;;;;;5049942;28;20136;-81
2023/01/11 08:09:31;;;;;;;11.80;1.27;;;10.40;89.50;;;;;;5048326;28;20997;-80
2023/01/11 08:14:43;;;;;;;12.77;1.83;;;10.40;88.80;;;;;;5048467;28;20046;-80
2023/01/11 08:17:12;;;;;;;8.95;1.00;;;10.30;88.80;;;;;;5048730;28;20077;-80
2023/01/11 08:19:39;;;;;;;12.00;1.60;;;10.30;88.40;;;;;;5048171;28;20049;-82
2023/01/11 08:22:06;;;;;;;10.90;2.03;;;10.20;88.30;;;;;;5031741;28;20171;-83
2023/01/11 08:24:34;;;;;;;9.15;1.17;;;10.20;88.40;;;;;;5048366;28;20068;-81
2023/01/11 08:27:03;;;;;;;6.97;0.75;;;10.10;88.30;;;;;;5048310;28;20454;-80
2023/01/11 08:29:30;;;;;;;8.13;0.90;;;10.10;87.60;;;;;;5047202;28;20041;-81
2023/01/11 08:31:58;;;;;;;8.37;1.40;;;10.10;87.20;;;;;;5048265;28;20049;-80
2023/01/11 08:34:26;;;;;;;5.38;0.47;;;10.00;87.20;;;;;;5049802;28;20053;-80
2023/01/11 08:36:55;;;;;;;9.27;1.08;;;10.00;86.90;;;;;;5049693;28;20069;-80
2023/01/11 08:39:22;;;;;;;10.27;1.70;;;10.00;87.00;;;;;;5049318;28;20073;-80
2023/01/11 08:41:49;;;;;;;9.02;1.05;;;9.90;87.40;;;;;;5047868;28;20160;-80
2023/01/11 08:44:17;;;;;;;6.20;0.83;;;9.80;87.60;;;;;;5049793;28;20124;-81
2023/01/11 08:46:45;;;;;;;10.73;1.30;;;9.80;87.50;;;;;;5047290;28;20657;-81
2023/01/11 08:49:12;;;;;;;7.78;1.52;;;9.80;87.50;;;;;;5047925;28;20125;-81
2023/01/11 08:51:40;;;;;;;5.05;0.82;;;9.80;87.70;;;;;;5047861;28;20049;-81
2023/01/11 08:54:10;;;;;;;10.65;1.02;;;9.80;87.70;;;;;;5048088;28;20128;-81
2023/01/11 08:56:37;;;;;;;7.70;0.80;;;9.70;87.80;;;;;;5027656;28;20057;-81
2023/01/11 08:59:04;;;;;;;7.63;1.10;;;9.70;87.90;;;;;;5011495;28;20074;-81
2023/01/11 09:01:33;;;;;;;14.57;1.88;;;9.70;88.00;;;;;;5029615;28;20515;-81
2023/01/11 09:04:00;;;;;;;9.68;1.02;;;9.70;88.00;;;;;;5044683;28;20100;-80
2023/01/11 09:06:27;;;;;;;9.00;1.40;;;9.70;88.00;;;;;;5048336;28;20929;-80
2023/01/11 09:08:54;;;;;;;11.27;1.10;;;9.70;88.00;;;;;;5049247;28;20065;-81
2023/01/11 09:14:06;;;;;;;8.05;1.33;;;9.70;88.00;;;;;;5049046;28;20058;-81
2023/01/11 09:16:34;;;;;;;10.77;1.40;;;9.70;88.10;;;;;;5047842;28;20083;-80
2023/01/11 09:19:01;;;;;;;10.43;1.70;;;9.70;88.10;;;;;;5046184;28;20108;-81
2023/01/11 09:21:28;;;;;;;12.20;1.77;;;9.70;88.10;;;;;;5048875;28;20059;-81
2023/01/11 09:23:56;;;;;;;8.45;0.98;;;9.80;88.10;;;;;;5031154;28;20058;-81
2023/01/11 09:26:23;;;;;;;9.63;1.25;;;9.80;88.00;;;;;;5047550;28;20128;-81
2023/01/11 09:28:50;;;;;;;9.73;0.98;;;9.80;87.90;;;;;;5030346;28;20054;-81
2023/01/11 09:31:17;;;;;;;6.35;1.50;;;9.80;87.70;;;;;;5049049;28;20920;-81
2023/01/11 09:33:45;;;;;;;8.63;1.33;;;9.80;87.70;;;;;;5049191;28;20077;-82
2023/01/11 09:36:13;;;;;;;8.02;1.23;;;9.70;87.80;;;;;;5046392;28;20088;-80
2023/01/11 09:38:40;;;;;;;7.93;1.10;;;9.70;87.80;;;;;;5047252;28;20060;-82
2023/01/11 09:41:22;;;;;;;7.55;1.13;;;9.70;87.70;;;;;;5047000;28;20154;-81
2023/01/11 09:43:56;;;;;;;13.35;1.60;;;9.70;87.80;;;;;;5047345;28;20127;-81
2023/01/11 09:46:24;;;;;;;11.50;1.63;;;9.60;87.90;;;;;;5047269;28;20050;-80
2023/01/11 09:48:57;;;;;;;8.40;1.00;;;9.60;88.00;;;;;;5048749;28;20046;-80
2023/01/11 09:51:29;;;;;;;12.15;1.55;;;9.60;88.00;;;;;;5047194;28;20052;-82
2023/01/11 09:53:58;;;;;;;10.57;1.60;;;9.60;88.20;;;;;;5029569;28;20061;-81
2023/01/11 09:56:33;;;;;;;9.82;1.98;;;9.70;88.20;;;;;;5047078;28;20046;-81
2023/01/11 09:59:10;;;;;;;10.93;1.30;;;9.70;88.30;;;;;;5048417;28;20132;-80
2023/01/11 10:01:44;;;;;;;9.55;1.65;;;9.70;88.20;;;;;;5047054;28;20049;-80
2023/01/11 10:04:39;;;;;;;10.90;1.98;;;9.70;88.20;;;;;;5027229;28;20125;-82
2023/01/11 10:07:29;;;;;;;13.80;2.30;;;9.70;88.30;;;;;;5026461;28;20061;-81
2023/01/11 10:10:08;;;;;;;11.32;1.83;;;9.70;88.30;;;;;;5027017;28;20579;-80
2023/01/11 10:12:42;;;;;;;12.63;1.93;;;9.80;88.30;;;;;;5020413;28;20192;-82
2023/01/11 10:15:19;;;;;;;12.60;1.80;;;9.80;88.20;;;;;;5010557;28;20593;-80
2023/01/11 10:17:54;;;;;;;12.65;1.80;;;9.80;88.00;;;;;;5028646;28;20049;-80
2023/01/11 10:20:29;;;;;;;9.90;1.55;;;9.80;88.00;;;;;;5026664;28;20054;-81
2023/01/11 10:23:26;;;;;;;10.70;1.70;;;9.90;87.90;;;;;;5028984;28;20501;-81
2023/01/11 10:25:59;;;;;;;11.40;1.60;;;9.90;87.80;;;;;;5027892;28;20049;-81
2023/01/11 10:28:34;;;;;;;10.13;1.58;;;9.90;87.60;;;;;;5038486;28;20561;-80
2023/01/11 10:31:27;;;;;;;13.95;1.98;;;9.90;87.50;;;;;;5045997;28;20049;-82
2023/01/11 10:34:17;;;;;;;11.40;1.80;;;9.90;87.30;;;;;;5046031;28;20050;-81
2023/01/11 10:37:09;;;;;;;11.90;1.75;;;9.90;87.30;;;;;;5047453;28;20153;-81
2023/01/11 10:40:10;;;;;;;13.40;1.87;;;10.00;87.00;;;;;;5046085;28;20129;-80
2023/01/11 10:42:43;;;;;;;9.68;2.08;;;10.00;86.90;;;;;;5045464;28;20522;-82
2023/01/11 10:45:17;;;;;;;8.45;1.20;;;10.00;86.70;;;;;;5044663;28;20484;-81
2023/01/11 10:48:08;;;;;;;9.65;1.60;;;10.00;86.80;;;;;;5029591;28;20680;-82
2023/01/11 10:50:41;;;;;;;11.27;1.83;;;10.00;86.70;;;;;;5045741;28;20057;-81
2023/01/11 10:53:17;;;;;;;13.40;2.10;;;10.00;86.50;;;;;;5045166;28;20120;-81
2023/01/11 10:56:07;;;;;;;15.20;2.53;;;10.00;86.10;;;;;;5045717;28;20050;-80
2023/01/11 10:58:52;;;;;;;10.32;1.83;;;10.00;86.00;;;;;;5045630;28;20061;-84
2023/01/11 11:01:31;;;;;;;14.00;1.92;;;9.90;85.60;;;;;;5046078;28;20057;-81
2023/01/11 11:04:19;;;;;;;13.10;2.08;;;10.00;85.40;;;;;;5045874;28;20049;-82
2023/01/11 11:06:56;;;;;;;11.03;1.47;;;10.00;85.40;;;;;;5028670;28;20131;-81
2023/01/11 11:09:31;;;;;;;12.18;1.90;;;10.00;84.70;;;;;;5045205;28;20046;-81
2023/01/11 11:12:03;;;;;;;7.50;1.38;;;10.00;84.70;;;;;;5047071;28;20490;-81
2023/01/11 11:14:36;;;;;;;11.90;1.77;;;10.00;84.60;;;;;;5045525;28;20147;-83
2023/01/11 11:17:17;;;;;;;11.20;2.35;;;10.00;84.40;;;;;;5045369;28;20148;-83
2023/01/11 11:19:44;;;;;;;10.70;2.07;;;10.00;83.50;;;;;;5028372;28;20119;-83
2023/01/11 11:22:12;;;;;;;11.90;1.83;;;10.00;83.60;;;;;;5049160;28;20050;-82
2023/01/11 11:24:43;;;;;;;9.88;1.42;;;10.00;83.60;;;;;;5048838;28;20474;-83
2023/01/11 11:27:18;;;;;;;13.38;1.95;;;10.00;82.50;;;;;;5050275;28;20136;-81
2023/01/11 11:29:51;;;;;;;9.98;1.60;;;10.00;82.10;;;;;;5048674;28;20057;-81
2023/01/11 11:32:23;;;;;;;13.90;1.70;;;10.00;82.40;;;;;;5032426;28;20500;-81
2023/01/11 11:34:50;;;;;;;13.80;1.25;;;10.00;82.40;;;;;;5047250;28;20053;-82
2023/01/11 11:37:24;;;;;;;12.02;1.98;;;10.00;82.50;;;;;;5048289;28;20153;-81
2023/01/11 11:39:53;;;;;;;11.13;2.05;;;10.00;82.80;;;;;;5048159;28;20052;-81
2023/01/11 11:42:22;;;;;;;10.02;1.95;;;10.00;82.60;;;;;;5048705;28;20080;-81
2023/01/11 11:45:15;;;;;;;14.63;2.27;;;10.00;82.20;;;;;;5048313;28;20590;-83
2023/01/11 11:47:43;;;;;;;15.05;2.40;;;10.10;81.40;;;;;;5048487;28;20408;-82
2023/01/11 11:50:25;;;;;;;14.68;1.95;;;10.00;81.60;;;;;;5048077;28;20080;-81
2023/01/11 11:52:54;;;;;;;10.52;1.90;;;10.00;81.20;;;;;;5030243;28;20589;-81
2023/01/11 11:55:29;;;;;;;10.30;1.88;;;10.00;81.00;;;;;;5048274;28;20055;-81
2023/01/11 11:57:58;;;;;;;14.57;1.60;;;10.00;81.50;;;;;;5048220;28;20053;-81
2023/01/11 12:00:28;;;;;;;11.40;1.63;;;10.00;81.60;;;;;;5028685;28;20096;-81
2023/01/11 12:02:58;;;;;;;10.25;1.02;;;10.00;81.50;;;;;;5031740;28;20054;-80
2023/01/11 12:05:25;;;;;;;16.08;2.38;;;10.00;81.50;;;;;;5049700;28;20059;-83
2023/01/11 12:07:54;;;;;;;10.88;1.90;;;10.00;81.80;;;;;;5047862;28;20168;-82
2023/01/11 12:10:25;;;;;;;11.10;1.77;;;10.00;81.20;;;;;;5046944;28;20057;-82
2023/01/11 12:12:54;;;;;;;11.55;1.80;;;10.10;80.70;;;;;;5049571;28;20057;-80
2023/01/11 12:15:25;;;;;;;16.67;1.88;;;10.10;79.70;;;;;;5047895;28;20950;-82
2023/01/11 12:17:53;;;;;;;11.95;1.70;;;10.10;80.20;;;;;;5047947;28;20059;-81
2023/01/11 12:20:41;;;;;;;12.93;1.77;;;10.10;80.60;;;;;;5048027;28;20057;-82
2023/01/11 12:23:16;;;;;;;11.37;1.30;;;10.20;79.60;;;;;;5048235;28;20057;-81
2023/01/11 12:26:16;;;;;;;11.60;1.80;;;10.20;79.20;;;;;;5049496;28;20052;-81
2023/01/11 12:29:07;;;;;;;8.23;1.60;;;10.20;79.70;;;;;;5047793;28;20151;-82
2023/01/11 12:31:48;;;;;;;13.02;1.73;;;10.20;79.50;;;;;;5044121;28;20047;-81
2023/01/11 12:34:34;;;;;;;15.18;1.60;;;10.20;79.90;;;;;;5047764;28;20136;-81
2023/01/11 12:37:12;;;;;;;14.37;2.07;;;10.20;79.40;;;;;;5042990;28;20132;-83
2023/01/11 12:39:47;;;;;;;13.32;1.83;;;10.20;78.70;;;;;;5047359;28;20590;-82
2023/01/11 12:42:40;;;;;;;14.15;1.80;;;10.20;78.60;;;;;;5049914;28;20057;-82
2023/01/11 12:45:18;;;;;;;12.65;1.70;;;10.20;78.90;;;;;;5048130;28;20061;-82
2023/01/11 12:48:07;;;;;;;10.98;1.70;;;10.20;78.50;;;;;;5047933;28;20507;-81
2023/01/11 12:50:44;;;;;;;10.03;1.43;;;10.20;77.40;;;;;;5046991;28;20057;-83
2023/01/11 12:53:36;;;;;;;11.05;1.20;;;10.20;77.70;;;;;;5047474;28;20141;-80
2023/01/11 12:56:28;;;;;;;12.05;2.10;;;10.20;77.90;;;;;;5049419;28;20610;-81
2023/01/11 12:59:02;;;;;;;15.82;2.03;;;10.10;77.90;;;;;;5048479;28;20050;-81
2023/01/11 13:01:43;;;;;;;14.70;1.90;;;10.10;77.90;;;;;;5045891;28;20565;-82
2023/01/11 13:04:39;;;;;;;14.10;2.00;;;10.10;78.20;;;;;;5064307;28;20584;-81
2023/01/11 13:07:21;;;;;;;15.65;1.92;;;10.20;77.50;;;;;;5047017;28;20061;-81
2023/01/11 13:10:02;;;;;;;13.88;2.00;;;10.20;77.40;;;;;;5046933;28;20145;-82
2023/01/11 13:12:35;;;;;;;15.27;1.75;;;10.20;77.20;;;;;;5029339;28;20443;-81
2023/01/11 13:15:22;;;;;;;15.50;1.80;;;10.20;77.40;;;;;;5030507;28;20050;-81
2023/01/11 13:17:56;;;;;;;15.83;2.47;;;10.20;77.60;;;;;;5045952;28;20184;-83
2023/01/11 13:20:36;;;;;;;13.38;2.17;;;10.20;77.20;;;;;;5046866;28;20042;-82
2023/01/11 13:23:09;;;;;;;15.48;2.67;;;10.20;77.00;;;;;;5048324;28;20124;-82
2023/01/11 13:25:41;;;;;;;13.88;2.10;;;10.20;77.30;;;;;;5048607;28;20136;-80
2023/01/11 13:28:19;;;;;;;10.30;1.50;;;10.20;76.10;;;;;;5047189;28;20128;-82
2023/01/11 13:30:48;;;;;;;17.00;2.13;;;10.20;76.50;;;;;;5046852;28;20175;-82
2023/01/11 13:33:21;;;;;;;9.10;1.27;;;10.10;76.70;;;;;;5048318;28;20127;-81